• Join FlightAware (Why Join?)
  • Login
  • US Flag 
02:30PM EDT


 

Airport Tracker/Info


-or-


 

Live Flight TrackerFlight Track Log ✈ FIN666 ✈ 07-Oct-2013 ✈ EKCH / CPH - EFHK / HEL

Flight Track Log - Related Links

Times and Time Zones

All times are in EDT time to prevent confusion due to time zone crossing. See the FIN666 flight status page for this flight to view local times or setup timezone preferences in your user account.

Time Position Orientation Groundspeed Altitude Reporting Facility
EDT Latitude Longitude Course Direction KTS MPH feet Rate Location/Type
07:29AM 55.9164 13.2747 49° Northeast  Level Estimated
07:30AM 55.9905 13.4309 50° Northeast  Level Estimated
07:31AM 56.0644 13.5877 50° Northeast  Level Estimated
07:32AM 56.1381 13.7451 50° Northeast  Level Estimated
07:33AM 56.2116 13.9031 50° Northeast  Level Estimated
07:34AM 56.2850 14.0617 50° Northeast  Level Estimated
07:35AM 56.3581 14.2208 50° Northeast  Level Estimated
07:36AM 56.4310 14.3807 50° Northeast  Level Estimated
07:37AM 56.5037 14.5411 51° Northeast  Level Estimated
07:38AM 56.5762 14.7021 51° Northeast  Level Estimated
07:39AM 56.6485 14.8638 51° Northeast  Level Estimated
07:40AM 56.7206 15.0261 51° Northeast  Level Estimated
07:41AM 56.7924 15.1890 51° Northeast  Level Estimated
07:42AM 56.8641 15.3525 51° Northeast  Level Estimated
07:43AM 56.9355 15.5166 51° Northeast  Level Estimated
07:44AM 57.0068 15.6814 52° Northeast  Level Estimated
07:45AM 57.0778 15.8468 52° Northeast  Level Estimated
07:46AM 57.1486 16.0129 52° Northeast  Level Estimated
07:47AM 57.2191 16.1795 52° Northeast  Level Estimated
07:48AM 57.2915 16.3518 52° Northeast  Level Estimated
07:49AM 57.3637 16.5247 52° Northeast  Level Estimated
07:50AM 57.4357 16.6983 52° Northeast  Level Estimated
07:51AM 57.5074 16.8726 53° Northeast  Level Estimated
07:52AM 57.5788 17.0476 53° Northeast  Level Estimated
07:53AM 57.6501 17.2232 53° Northeast  Level Estimated
07:54AM 57.7210 17.3996 53° Northeast  Level Estimated
07:55AM 57.7918 17.5766 53° Northeast  Level Estimated
07:56AM 57.8622 17.7544 53° Northeast  Level Estimated
07:57AM 57.9325 17.9328 53° Northeast  Level Estimated
07:58AM 58.0024 18.1119 54° Northeast  Level Estimated
07:59AM 58.0722 18.2918 54° Northeast  Level Estimated
08:00AM 58.1416 18.4723 54° Northeast  Level Estimated
08:01AM 58.2108 18.6535 54° Northeast  Level Estimated
08:02AM 58.2798 18.8355 54° Northeast  Level Estimated
08:03AM 58.3485 19.0181 54° Northeast  Level Estimated
08:04AM 58.4169 19.2015 54° Northeast  Level Estimated
08:05AM 58.4851 19.3856 55° Northeast  Level Estimated
08:06AM 58.5530 19.5704 55° Northeast  Level Estimated
08:07AM 58.6207 19.7559 55° Northeast  Level Estimated
08:08AM 58.6880 19.9421 55° Northeast  Level Estimated
08:09AM 58.7551 20.1291 55° Northeast  Level Estimated
08:10AM 58.8220 20.3167 55° Northeast  Level Estimated
08:11AM 58.8885 20.5051 56° Northeast  Level Estimated
08:12AM 58.9548 20.6942 56° Northeast  Level Estimated
08:13AM 59.0208 20.8841 56° Northeast  Level Estimated
08:14AM 59.0866 21.0746 56° Northeast  Level Estimated
08:15AM 59.1520 21.2659 56° Northeast  Level Estimated
08:16AM 59.2172 21.4580 56° Northeast  Level Estimated
08:17AM 59.2821 21.6507 57° Northeast  Level Estimated
08:18AM 59.3467 21.8442 57° Northeast  Level Estimated
08:19AM 59.4110 22.0385 57° Northeast  Level Estimated
08:20AM 59.4750 22.2335 57° Northeast  Level Estimated
08:21AM 59.5387 22.4292 57° Northeast  Level Estimated
08:22AM 59.6021 22.6256 57° Northeast  Level Estimated
08:23AM 59.6653 22.8228 58° Northeast  Level Estimated
08:24AM 59.7281 23.0208 58° Northeast  Level Estimated
08:25AM 59.7907 23.2194 58° Northeast  Level Estimated
08:26AM 59.8529 23.4188 58° Northeast  Level Estimated
08:27AM 59.9148 23.6190 58° Northeast  Level Estimated
08:28AM 59.9765 23.8199 58° Northeast  Level Estimated
08:29AM 60.0378 24.0216 59° Northeast  Level Estimated
08:30AM 60.0988 24.2240 59° Northeast  Level Estimated
08:31AM 60.1595 24.4272 59° Northeast  Level Estimated
08:32AM 60.2200 24.6311 59° Northeast  Level Estimated
08:33AM 60.2800 24.8357 59° Northeast  Level Estimated
08:34AM 60.3172 24.9633 59° Northeast  Level Estimated
08:35AM 60.3172 24.9633 37° Northeast  Level Estimated
08:36AM 60.3172 24.9633 37° Northeast  Level Estimated
08:37AM 60.3172 24.9633 37° Northeast  Level Estimated
08:38AM 60.3172 24.9633 37° Northeast  Level Estimated
08:39AM 60.3172 24.9633 37° Northeast  Level Estimated
08:40AM 60.3172 24.9633 37° Northeast  Level Estimated
08:41AM 60.3172 24.9633 37° Northeast  Level Estimated
08:42AM 60.3172 24.9633 37° Northeast  Level Estimated
08:43AM 60.3172 24.9633 37° Northeast  Level Estimated
08:44AM 60.3172 24.9633 37° Northeast  Level Estimated
08:45AM 60.3172 24.9633 37° Northeast  Level Estimated